sensor_id;sensor_type;location;lat;lon;timestamp;P1;durP1;ratioP1;P2;durP2;ratioP2
65073;SDS011;52218;51.224;-2.328;2023-02-23T00:02:30;3.38;;;2.00;;
65073;SDS011;52218;51.224;-2.328;2023-02-23T00:06:12;3.53;;;1.85;;
65073;SDS011;52218;51.224;-2.328;2023-02-23T00:09:54;2.35;;;1.83;;
65073;SDS011;52218;51.224;-2.328;2023-02-23T00:13:37;3.72;;;2.22;;
65073;SDS011;52218;51.224;-2.328;2023-02-23T00:17:20;4.55;;;2.47;;
65073;SDS011;52218;51.224;-2.328;2023-02-23T00:21:04;3.33;;;2.17;;
65073;SDS011;52218;51.224;-2.328;2023-02-23T00:24:46;3.70;;;2.58;;
65073;SDS011;52218;51.224;-2.328;2023-02-23T00:28:30;4.47;;;2.50;;
65073;SDS011;52218;51.224;-2.328;2023-02-23T00:32:12;3.25;;;2.47;;
65073;SDS011;52218;51.224;-2.328;2023-02-23T00:35:54;4.00;;;2.47;;
65073;SDS011;52218;51.224;-2.328;2023-02-23T00:39:36;3.15;;;2.50;;
65073;SDS011;52218;51.224;-2.328;2023-02-23T00:43:18;3.45;;;2.92;;
65073;SDS011;52218;51.224;-2.328;2023-02-23T00:47:05;3.75;;;3.35;;
65073;SDS011;52218;51.224;-2.328;2023-02-23T00:50:51;3.63;;;3.22;;
65073;SDS011;52218;51.224;-2.328;2023-02-23T00:54:44;3.22;;;2.90;;
65073;SDS011;52218;51.224;-2.328;2023-02-23T00:58:29;3.47;;;3.10;;
65073;SDS011;52218;51.224;-2.328;2023-02-23T01:02:11;5.38;;;3.40;;
65073;SDS011;52218;51.224;-2.328;2023-02-23T01:05:58;3.75;;;2.83;;
65073;SDS011;52218;51.224;-2.328;2023-02-23T01:09:45;3.70;;;3.30;;
65073;SDS011;52218;51.224;-2.328;2023-02-23T01:13:27;4.50;;;3.30;;
65073;SDS011;52218;51.224;-2.328;2023-02-23T01:17:09;3.90;;;3.50;;
65073;SDS011;52218;51.224;-2.328;2023-02-23T01:20:51;3.83;;;3.42;;
65073;SDS011;52218;51.224;-2.328;2023-02-23T01:24:33;4.30;;;3.90;;
65073;SDS011;52218;51.224;-2.328;2023-02-23T01:28:15;5.03;;;4.22;;
65073;SDS011;52218;51.224;-2.328;2023-02-23T01:31:57;4.63;;;4.07;;
65073;SDS011;52218;51.224;-2.328;2023-02-23T01:35:39;5.10;;;4.28;;
65073;SDS011;52218;51.224;-2.328;2023-02-23T01:39:22;5.20;;;3.88;;
65073;SDS011;52218;51.224;-2.328;2023-02-23T01:43:11;4.25;;;3.85;;
65073;SDS011;52218;51.224;-2.328;2023-02-23T01:47:03;4.38;;;3.97;;
65073;SDS011;52218;51.224;-2.328;2023-02-23T01:54:43;4.25;;;3.80;;
65073;SDS011;52218;51.224;-2.328;2023-02-23T01:58:30;4.35;;;3.70;;
65073;SDS011;52218;51.224;-2.328;2023-02-23T02:02:15;4.40;;;3.78;;
65073;SDS011;52218;51.224;-2.328;2023-02-23T02:05:59;3.83;;;3.30;;
65073;SDS011;52218;51.224;-2.328;2023-02-23T02:09:43;5.72;;;3.00;;
65073;SDS011;52218;51.224;-2.328;2023-02-23T02:13:46;3.85;;;2.92;;
65073;SDS011;52218;51.224;-2.328;2023-02-23T02:45:12;3.72;;;2.55;;
65073;SDS011;52218;51.224;-2.328;2023-02-23T02:49:10;4.00;;;2.60;;
65073;SDS011;52218;51.224;-2.328;2023-02-23T02:53:00;3.50;;;3.03;;
65073;SDS011;52218;51.224;-2.328;2023-02-23T02:56:47;5.68;;;2.53;;
65073;SDS011;52218;51.224;-2.328;2023-02-23T03:00:41;3.45;;;2.65;;
65073;SDS011;52218;51.224;-2.328;2023-02-23T03:04:46;3.03;;;2.72;;
65073;SDS011;52218;51.224;-2.328;2023-02-23T03:13:03;3.75;;;2.58;;
65073;SDS011;52218;51.224;-2.328;2023-02-23T03:21:55;3.50;;;2.70;;
65073;SDS011;52218;51.224;-2.328;2023-02-23T03:30:25;3.22;;;2.35;;
65073;SDS011;52218;51.224;-2.328;2023-02-23T03:34:45;2.70;;;2.00;;
65073;SDS011;52218;51.224;-2.328;2023-02-23T03:43:00;4.00;;;2.17;;
65073;SDS011;52218;51.224;-2.328;2023-02-23T03:51:10;2.95;;;2.15;;
65073;SDS011;52218;51.224;-2.328;2023-02-23T03:55:17;3.35;;;2.13;;
65073;SDS011;52218;51.224;-2.328;2023-02-23T03:59:23;3.33;;;2.13;;
65073;SDS011;52218;51.224;-2.328;2023-02-23T04:03:28;3.13;;;2.08;;
65073;SDS011;52218;51.224;-2.328;2023-02-23T04:07:31;2.78;;;2.33;;
65073;SDS011;52218;51.224;-2.328;2023-02-23T04:11:50;3.83;;;1.67;;
65073;SDS011;52218;51.224;-2.328;2023-02-23T04:16:07;2.58;;;2.00;;
65073;SDS011;52218;51.224;-2.328;2023-02-23T04:19:52;3.35;;;2.20;;
65073;SDS011;52218;51.224;-2.328;2023-02-23T04:23:36;2.50;;;1.92;;
65073;SDS011;52218;51.224;-2.328;2023-02-23T04:27:21;3.80;;;2.28;;
65073;SDS011;52218;51.224;-2.328;2023-02-23T04:31:03;2.20;;;1.67;;
65073;SDS011;52218;51.224;-2.328;2023-02-23T04:34:45;3.20;;;2.10;;
65073;SDS011;52218;51.224;-2.328;2023-02-23T04:38:27;3.78;;;2.00;;
65073;SDS011;52218;51.224;-2.328;2023-02-23T04:42:09;2.95;;;2.00;;
65073;SDS011;52218;51.224;-2.328;2023-02-23T04:45:51;2.92;;;1.98;;
65073;SDS011;52218;51.224;-2.328;2023-02-23T04:49:33;4.35;;;1.98;;
65073;SDS011;52218;51.224;-2.328;2023-02-23T04:53:15;4.35;;;2.10;;
65073;SDS011;52218;51.224;-2.328;2023-02-23T04:56:57;3.00;;;1.95;;
65073;SDS011;52218;51.224;-2.328;2023-02-23T05:00:39;4.93;;;1.90;;
65073;SDS011;52218;51.224;-2.328;2023-02-23T05:04:21;3.08;;;1.65;;
65073;SDS011;52218;51.224;-2.328;2023-02-23T05:08:03;4.50;;;1.88;;
65073;SDS011;52218;51.224;-2.328;2023-02-23T05:11:46;3.42;;;2.00;;
65073;SDS011;52218;51.224;-2.328;2023-02-23T05:15:28;4.07;;;2.17;;
65073;SDS011;52218;51.224;-2.328;2023-02-23T05:19:10;4.57;;;1.70;;
65073;SDS011;52218;51.224;-2.328;2023-02-23T05:22:52;2.00;;;1.70;;
65073;SDS011;52218;51.224;-2.328;2023-02-23T05:26:34;3.25;;;1.85;;
65073;SDS011;52218;51.224;-2.328;2023-02-23T05:30:16;3.15;;;1.85;;
65073;SDS011;52218;51.224;-2.328;2023-02-23T05:33:58;5.45;;;2.05;;
65073;SDS011;52218;51.224;-2.328;2023-02-23T05:37:40;2.67;;;1.67;;
65073;SDS011;52218;51.224;-2.328;2023-02-23T05:41:22;3.58;;;1.80;;
65073;SDS011;52218;51.224;-2.328;2023-02-23T05:45:05;3.70;;;1.60;;
65073;SDS011;52218;51.224;-2.328;2023-02-23T05:48:49;1.75;;;1.40;;
65073;SDS011;52218;51.224;-2.328;2023-02-23T05:52:32;2.67;;;1.40;;
65073;SDS011;52218;51.224;-2.328;2023-02-23T05:56:17;2.13;;;1.40;;
65073;SDS011;52218;51.224;-2.328;2023-02-23T06:00:03;2.92;;;1.48;;
65073;SDS011;52218;51.224;-2.328;2023-02-23T06:03:46;2.85;;;1.48;;
65073;SDS011;52218;51.224;-2.328;2023-02-23T06:07:29;3.35;;;1.40;;
65073;SDS011;52218;51.224;-2.328;2023-02-23T06:11:11;2.97;;;1.30;;
65073;SDS011;52218;51.224;-2.328;2023-02-23T06:14:53;2.38;;;1.23;;
65073;SDS011;52218;51.224;-2.328;2023-02-23T06:18:35;2.85;;;1.23;;
65073;SDS011;52218;51.224;-2.328;2023-02-23T06:22:17;2.70;;;1.30;;
65073;SDS011;52218;51.224;-2.328;2023-02-23T06:25:59;2.08;;;1.30;;
65073;SDS011;52218;51.224;-2.328;2023-02-23T06:29:41;2.13;;;1.50;;
65073;SDS011;52218;51.224;-2.328;2023-02-23T06:33:24;2.67;;;1.30;;
65073;SDS011;52218;51.224;-2.328;2023-02-23T06:37:06;2.40;;;1.48;;
65073;SDS011;52218;51.224;-2.328;2023-02-23T06:40:49;2.25;;;1.20;;
65073;SDS011;52218;51.224;-2.328;2023-02-23T06:44:31;3.90;;;1.55;;
65073;SDS011;52218;51.224;-2.328;2023-02-23T06:48:15;1.92;;;1.52;;
65073;SDS011;52218;51.224;-2.328;2023-02-23T06:51:58;2.55;;;1.67;;
65073;SDS011;52218;51.224;-2.328;2023-02-23T06:55:40;2.80;;;1.70;;
65073;SDS011;52218;51.224;-2.328;2023-02-23T06:59:22;3.53;;;1.70;;
65073;SDS011;52218;51.224;-2.328;2023-02-23T07:03:04;2.75;;;1.90;;
65073;SDS011;52218;51.224;-2.328;2023-02-23T07:06:47;3.17;;;1.60;;
65073;SDS011;52218;51.224;-2.328;2023-02-23T07:10:29;3.92;;;1.73;;
65073;SDS011;52218;51.224;-2.328;2023-02-23T07:14:11;3.15;;;1.85;;
65073;SDS011;52218;51.224;-2.328;2023-02-23T07:18:06;4.00;;;1.95;;
65073;SDS011;52218;51.224;-2.328;2023-02-23T07:21:48;2.92;;;2.10;;
65073;SDS011;52218;51.224;-2.328;2023-02-23T07:25:31;2.78;;;1.90;;
65073;SDS011;52218;51.224;-2.328;2023-02-23T07:29:13;3.33;;;1.85;;
65073;SDS011;52218;51.224;-2.328;2023-02-23T07:32:55;3.75;;;1.90;;
65073;SDS011;52218;51.224;-2.328;2023-02-23T07:36:37;2.25;;;1.70;;
65073;SDS011;52218;51.224;-2.328;2023-02-23T07:40:19;2.85;;;1.90;;
65073;SDS011;52218;51.224;-2.328;2023-02-23T07:44:01;2.75;;;1.73;;
65073;SDS011;52218;51.224;-2.328;2023-02-23T07:47:43;3.70;;;1.70;;
65073;SDS011;52218;51.224;-2.328;2023-02-23T07:51:25;2.50;;;1.65;;
65073;SDS011;52218;51.224;-2.328;2023-02-23T07:55:07;4.43;;;1.77;;
65073;SDS011;52218;51.224;-2.328;2023-02-23T07:58:50;3.17;;;1.60;;
65073;SDS011;52218;51.224;-2.328;2023-02-23T08:02:32;2.80;;;1.52;;
65073;SDS011;52218;51.224;-2.328;2023-02-23T08:06:15;2.78;;;1.40;;
65073;SDS011;52218;51.224;-2.328;2023-02-23T08:09:58;2.13;;;1.40;;
65073;SDS011;52218;51.224;-2.328;2023-02-23T08:13:40;3.78;;;1.60;;
65073;SDS011;52218;51.224;-2.328;2023-02-23T08:17:23;3.55;;;1.55;;
65073;SDS011;52218;51.224;-2.328;2023-02-23T08:21:05;5.60;;;1.63;;
65073;SDS011;52218;51.224;-2.328;2023-02-23T08:24:48;4.10;;;1.60;;
65073;SDS011;52218;51.224;-2.328;2023-02-23T08:28:30;3.60;;;1.70;;
65073;SDS011;52218;51.224;-2.328;2023-02-23T08:32:12;3.38;;;1.42;;
65073;SDS011;52218;51.224;-2.328;2023-02-23T08:35:57;5.53;;;1.58;;
65073;SDS011;52218;51.224;-2.328;2023-02-23T08:39:40;5.15;;;1.63;;
65073;SDS011;52218;51.224;-2.328;2023-02-23T08:43:23;4.07;;;1.45;;
65073;SDS011;52218;51.224;-2.328;2023-02-23T08:47:05;7.55;;;1.83;;
65073;SDS011;52218;51.224;-2.328;2023-02-23T08:50:47;4.10;;;1.40;;
65073;SDS011;52218;51.224;-2.328;2023-02-23T08:54:30;6.40;;;1.50;;
65073;SDS011;52218;51.224;-2.328;2023-02-23T08:58:12;6.50;;;1.90;;
65073;SDS011;52218;51.224;-2.328;2023-02-23T09:01:54;4.32;;;1.60;;
65073;SDS011;52218;51.224;-2.328;2023-02-23T09:05:36;3.45;;;1.25;;
65073;SDS011;52218;51.224;-2.328;2023-02-23T09:09:19;3.17;;;1.40;;
65073;SDS011;52218;51.224;-2.328;2023-02-23T09:13:01;3.97;;;1.50;;
65073;SDS011;52218;51.224;-2.328;2023-02-23T09:16:43;9.95;;;2.28;;
65073;SDS011;52218;51.224;-2.328;2023-02-23T09:20:25;6.18;;;1.83;;
65073;SDS011;52218;51.224;-2.328;2023-02-23T09:24:07;7.90;;;1.83;;
65073;SDS011;52218;51.224;-2.328;2023-02-23T09:27:52;6.43;;;2.03;;
65073;SDS011;52218;51.224;-2.328;2023-02-23T09:31:40;8.93;;;1.83;;
65073;SDS011;52218;51.224;-2.328;2023-02-23T09:35:24;4.93;;;1.40;;
65073;SDS011;52218;51.224;-2.328;2023-02-23T09:39:06;5.97;;;1.50;;
65073;SDS011;52218;51.224;-2.328;2023-02-23T09:47:01;6.45;;;1.50;;
65073;SDS011;52218;51.224;-2.328;2023-02-23T09:51:11;6.90;;;1.40;;
65073;SDS011;52218;51.224;-2.328;2023-02-23T09:54:59;7.68;;;2.10;;
65073;SDS011;52218;51.224;-2.328;2023-02-23T09:58:41;7.20;;;1.30;;
65073;SDS011;52218;51.224;-2.328;2023-02-23T10:02:36;8.57;;;2.00;;
65073;SDS011;52218;51.224;-2.328;2023-02-23T10:06:26;10.35;;;2.53;;
65073;SDS011;52218;51.224;-2.328;2023-02-23T10:14:00;7.50;;;1.88;;
65073;SDS011;52218;51.224;-2.328;2023-02-23T10:18:28;8.00;;;1.52;;
65073;SDS011;52218;51.224;-2.328;2023-02-23T10:22:26;6.95;;;1.65;;
65073;SDS011;52218;51.224;-2.328;2023-02-23T10:26:10;6.93;;;1.80;;
65073;SDS011;52218;51.224;-2.328;2023-02-23T10:29:58;8.57;;;1.65;;
65073;SDS011;52218;51.224;-2.328;2023-02-23T10:33:43;8.13;;;1.70;;
65073;SDS011;52218;51.224;-2.328;2023-02-23T10:37:25;8.68;;;1.63;;
65073;SDS011;52218;51.224;-2.328;2023-02-23T10:41:08;9.07;;;1.90;;
65073;SDS011;52218;51.224;-2.328;2023-02-23T10:44:55;6.78;;;1.55;;
65073;SDS011;52218;51.224;-2.328;2023-02-23T10:48:38;7.53;;;1.67;;
65073;SDS011;52218;51.224;-2.328;2023-02-23T10:52:28;9.38;;;2.20;;
65073;SDS011;52218;51.224;-2.328;2023-02-23T10:56:14;5.22;;;1.50;;
65073;SDS011;52218;51.224;-2.328;2023-02-23T11:03:53;9.27;;;1.90;;
65073;SDS011;52218;51.224;-2.328;2023-02-23T11:07:46;8.18;;;1.65;;
65073;SDS011;52218;51.224;-2.328;2023-02-23T11:11:28;10.18;;;2.00;;
65073;SDS011;52218;51.224;-2.328;2023-02-23T11:19:53;6.50;;;1.40;;
65073;SDS011;52218;51.224;-2.328;2023-02-23T11:23:33;6.97;;;1.67;;
65073;SDS011;52218;51.224;-2.328;2023-02-23T11:27:18;6.38;;;1.50;;
65073;SDS011;52218;51.224;-2.328;2023-02-23T11:31:07;4.82;;;1.60;;
65073;SDS011;52218;51.224;-2.328;2023-02-23T11:35:10;7.07;;;1.90;;
65073;SDS011;52218;51.224;-2.328;2023-02-23T11:39:06;8.45;;;1.70;;
65073;SDS011;52218;51.224;-2.328;2023-02-23T11:42:55;8.40;;;1.83;;
65073;SDS011;52218;51.224;-2.328;2023-02-23T11:46:55;9.32;;;1.75;;
65073;SDS011;52218;51.224;-2.328;2023-02-23T11:50:38;7.15;;;1.55;;
65073;SDS011;52218;51.224;-2.328;2023-02-23T11:54:29;4.20;;;1.45;;
65073;SDS011;52218;51.224;-2.328;2023-02-23T12:06:03;5.00;;;1.30;;
65073;SDS011;52218;51.224;-2.328;2023-02-23T12:09:46;8.00;;;1.67;;
65073;SDS011;52218;51.224;-2.328;2023-02-23T12:13:37;5.22;;;1.40;;
65073;SDS011;52218;51.224;-2.328;2023-02-23T12:17:25;6.22;;;1.20;;
65073;SDS011;52218;51.224;-2.328;2023-02-23T12:29:04;8.02;;;1.80;;
65073;SDS011;52218;51.224;-2.328;2023-02-23T12:40:49;6.68;;;1.40;;
65073;SDS011;52218;51.224;-2.328;2023-02-23T12:44:50;5.50;;;1.40;;
65073;SDS011;52218;51.224;-2.328;2023-02-23T12:52:26;5.57;;;1.30;;
65073;SDS011;52218;51.224;-2.328;2023-02-23T13:16:59;4.63;;;1.35;;
65073;SDS011;52218;51.224;-2.328;2023-02-23T13:21:00;3.35;;;1.15;;
65073;SDS011;52218;51.224;-2.328;2023-02-23T13:24:57;6.13;;;1.25;;
65073;SDS011;52218;51.224;-2.328;2023-02-23T13:28:59;5.40;;;1.30;;
65073;SDS011;52218;51.224;-2.328;2023-02-23T13:32:45;8.07;;;1.67;;
65073;SDS011;52218;51.224;-2.328;2023-02-23T13:36:28;5.78;;;1.35;;
65073;SDS011;52218;51.224;-2.328;2023-02-23T13:40:30;6.70;;;1.35;;
65073;SDS011;52218;51.224;-2.328;2023-02-23T13:44:32;5.00;;;1.10;;
65073;SDS011;52218;51.224;-2.328;2023-02-23T13:56:05;6.35;;;1.40;;
65073;SDS011;52218;51.224;-2.328;2023-02-23T13:59:56;6.97;;;1.42;;
65073;SDS011;52218;51.224;-2.328;2023-02-23T14:03:41;5.80;;;1.70;;
65073;SDS011;52218;51.224;-2.328;2023-02-23T14:07:32;6.25;;;1.40;;
65073;SDS011;52218;51.224;-2.328;2023-02-23T14:11:32;6.43;;;1.35;;
65073;SDS011;52218;51.224;-2.328;2023-02-23T14:30:58;5.38;;;1.20;;
65073;SDS011;52218;51.224;-2.328;2023-02-23T14:42:28;10.13;;;1.38;;
65073;SDS011;52218;51.224;-2.328;2023-02-23T14:46:20;5.57;;;1.42;;
65073;SDS011;52218;51.224;-2.328;2023-02-23T14:50:07;6.72;;;1.40;;
65073;SDS011;52218;51.224;-2.328;2023-02-23T14:53:59;5.40;;;1.17;;
65073;SDS011;52218;51.224;-2.328;2023-02-23T14:57:41;6.72;;;1.70;;
65073;SDS011;52218;51.224;-2.328;2023-02-23T15:01:58;6.00;;;1.40;;
65073;SDS011;52218;51.224;-2.328;2023-02-23T15:05:33;6.00;;;1.30;;
65073;SDS011;52218;51.224;-2.328;2023-02-23T15:09:23;7.28;;;1.33;;
65073;SDS011;52218;51.224;-2.328;2023-02-23T15:17:30;4.70;;;1.60;;
65073;SDS011;52218;51.224;-2.328;2023-02-23T15:21:18;3.83;;;1.33;;
65073;SDS011;52218;51.224;-2.328;2023-02-23T15:25:14;4.97;;;1.27;;
65073;SDS011;52218;51.224;-2.328;2023-02-23T15:33:10;5.43;;;1.15;;
65073;SDS011;52218;51.224;-2.328;2023-02-23T15:36:57;6.05;;;1.13;;
65073;SDS011;52218;51.224;-2.328;2023-02-23T15:40:43;9.35;;;0.93;;
65073;SDS011;52218;51.224;-2.328;2023-02-23T15:44:26;6.85;;;1.33;;
65073;SDS011;52218;51.224;-2.328;2023-02-23T15:48:25;6.05;;;1.20;;
65073;SDS011;52218;51.224;-2.328;2023-02-23T15:52:21;6.15;;;1.45;;
65073;SDS011;52218;51.224;-2.328;2023-02-23T15:59:50;6.70;;;1.58;;
65073;SDS011;52218;51.224;-2.328;2023-02-23T16:03:35;5.10;;;1.10;;
65073;SDS011;52218;51.224;-2.328;2023-02-23T16:07:25;4.22;;;1.08;;
65073;SDS011;52218;51.224;-2.328;2023-02-23T16:11:15;10.18;;;1.58;;
65073;SDS011;52218;51.224;-2.328;2023-02-23T16:15:00;3.20;;;0.80;;
65073;SDS011;52218;51.224;-2.328;2023-02-23T16:18:46;4.57;;;1.15;;
65073;SDS011;52218;51.224;-2.328;2023-02-23T16:26:18;3.45;;;1.13;;
65073;SDS011;52218;51.224;-2.328;2023-02-23T16:30:20;4.82;;;1.10;;
65073;SDS011;52218;51.224;-2.328;2023-02-23T16:38:34;5.07;;;1.10;;
65073;SDS011;52218;51.224;-2.328;2023-02-23T16:42:22;3.35;;;1.15;;
65073;SDS011;52218;51.224;-2.328;2023-02-23T16:46:11;5.85;;;1.23;;
65073;SDS011;52218;51.224;-2.328;2023-02-23T16:49:53;5.38;;;1.02;;
65073;SDS011;52218;51.224;-2.328;2023-02-23T16:53:35;4.93;;;1.13;;
65073;SDS011;52218;51.224;-2.328;2023-02-23T16:57:24;5.75;;;1.33;;
65073;SDS011;52218;51.224;-2.328;2023-02-23T17:01:13;4.68;;;1.20;;
65073;SDS011;52218;51.224;-2.328;2023-02-23T17:04:59;6.88;;;1.42;;
65073;SDS011;52218;51.224;-2.328;2023-02-23T17:08:41;4.75;;;1.45;;
65073;SDS011;52218;51.224;-2.328;2023-02-23T17:12:36;3.00;;;1.10;;
65073;SDS011;52218;51.224;-2.328;2023-02-23T17:16:18;4.85;;;1.40;;
65073;SDS011;52218;51.224;-2.328;2023-02-23T17:20:01;8.63;;;1.30;;
65073;SDS011;52218;51.224;-2.328;2023-02-23T17:23:45;5.63;;;1.65;;
65073;SDS011;52218;51.224;-2.328;2023-02-23T17:27:33;6.32;;;1.35;;
65073;SDS011;52218;51.224;-2.328;2023-02-23T17:31:16;6.80;;;1.80;;
65073;SDS011;52218;51.224;-2.328;2023-02-23T17:35:00;5.18;;;1.27;;
65073;SDS011;52218;51.224;-2.328;2023-02-23T17:38:42;5.60;;;1.80;;
65073;SDS011;52218;51.224;-2.328;2023-02-23T17:42:30;6.07;;;1.50;;
65073;SDS011;52218;51.224;-2.328;2023-02-23T17:46:15;5.88;;;1.75;;
65073;SDS011;52218;51.224;-2.328;2023-02-23T17:49:59;6.72;;;1.50;;
65073;SDS011;52218;51.224;-2.328;2023-02-23T17:53:41;6.03;;;1.30;;
65073;SDS011;52218;51.224;-2.328;2023-02-23T17:57:24;3.67;;;1.23;;
65073;SDS011;52218;51.224;-2.328;2023-02-23T18:01:07;4.75;;;1.15;;
65073;SDS011;52218;51.224;-2.328;2023-02-23T18:04:50;5.55;;;1.40;;
65073;SDS011;52218;51.224;-2.328;2023-02-23T18:08:33;4.72;;;1.70;;
65073;SDS011;52218;51.224;-2.328;2023-02-23T18:12:16;5.68;;;1.52;;
65073;SDS011;52218;51.224;-2.328;2023-02-23T18:16:00;5.72;;;1.50;;
65073;SDS011;52218;51.224;-2.328;2023-02-23T18:19:47;6.47;;;1.73;;
65073;SDS011;52218;51.224;-2.328;2023-02-23T18:23:31;8.23;;;2.47;;
65073;SDS011;52218;51.224;-2.328;2023-02-23T18:27:13;7.45;;;3.00;;
65073;SDS011;52218;51.224;-2.328;2023-02-23T18:30:55;8.48;;;3.40;;
65073;SDS011;52218;51.224;-2.328;2023-02-23T18:34:37;10.93;;;3.90;;
65073;SDS011;52218;51.224;-2.328;2023-02-23T18:38:19;8.85;;;3.70;;
65073;SDS011;52218;51.224;-2.328;2023-02-23T18:42:01;5.30;;;2.75;;
65073;SDS011;52218;51.224;-2.328;2023-02-23T18:45:44;7.85;;;3.40;;
65073;SDS011;52218;51.224;-2.328;2023-02-23T18:49:26;9.23;;;3.20;;
65073;SDS011;52218;51.224;-2.328;2023-02-23T18:53:08;5.32;;;2.30;;
65073;SDS011;52218;51.224;-2.328;2023-02-23T18:56:51;8.48;;;3.08;;
65073;SDS011;52218;51.224;-2.328;2023-02-23T19:00:34;8.00;;;3.10;;
65073;SDS011;52218;51.224;-2.328;2023-02-23T19:04:22;7.95;;;3.33;;
65073;SDS011;52218;51.224;-2.328;2023-02-23T19:08:05;8.85;;;2.70;;
65073;SDS011;52218;51.224;-2.328;2023-02-23T19:11:53;10.43;;;2.97;;
65073;SDS011;52218;51.224;-2.328;2023-02-23T19:15:35;6.35;;;2.60;;
65073;SDS011;52218;51.224;-2.328;2023-02-23T19:19:17;8.10;;;2.75;;
65073;SDS011;52218;51.224;-2.328;2023-02-23T19:23:03;4.65;;;2.13;;
65073;SDS011;52218;51.224;-2.328;2023-02-23T19:26:46;7.93;;;2.22;;
65073;SDS011;52218;51.224;-2.328;2023-02-23T19:30:28;6.75;;;2.40;;
65073;SDS011;52218;51.224;-2.328;2023-02-23T19:34:10;7.32;;;1.70;;
65073;SDS011;52218;51.224;-2.328;2023-02-23T19:37:52;7.10;;;2.75;;
65073;SDS011;52218;51.224;-2.328;2023-02-23T19:41:35;5.45;;;2.00;;
65073;SDS011;52218;51.224;-2.328;2023-02-23T19:45:19;5.40;;;1.90;;
65073;SDS011;52218;51.224;-2.328;2023-02-23T19:49:02;7.75;;;2.40;;
65073;SDS011;52218;51.224;-2.328;2023-02-23T19:52:45;5.40;;;2.47;;
65073;SDS011;52218;51.224;-2.328;2023-02-23T19:56:28;5.70;;;2.08;;
65073;SDS011;52218;51.224;-2.328;2023-02-23T20:00:10;6.93;;;2.50;;
65073;SDS011;52218;51.224;-2.328;2023-02-23T20:03:54;5.68;;;2.15;;
65073;SDS011;52218;51.224;-2.328;2023-02-23T20:07:42;10.23;;;2.47;;
65073;SDS011;52218;51.224;-2.328;2023-02-23T20:11:24;6.07;;;2.25;;
65073;SDS011;52218;51.224;-2.328;2023-02-23T20:15:07;10.23;;;2.85;;
65073;SDS011;52218;51.224;-2.328;2023-02-23T20:18:50;7.78;;;2.90;;
65073;SDS011;52218;51.224;-2.328;2023-02-23T20:22:32;6.75;;;2.83;;
65073;SDS011;52218;51.224;-2.328;2023-02-23T20:26:18;6.05;;;3.03;;
65073;SDS011;52218;51.224;-2.328;2023-02-23T20:30:07;8.13;;;3.85;;
65073;SDS011;52218;51.224;-2.328;2023-02-23T20:33:51;8.35;;;4.03;;
65073;SDS011;52218;51.224;-2.328;2023-02-23T20:37:34;7.90;;;4.38;;
65073;SDS011;52218;51.224;-2.328;2023-02-23T20:41:16;8.15;;;3.63;;
65073;SDS011;52218;51.224;-2.328;2023-02-23T20:44:59;7.93;;;3.95;;
65073;SDS011;52218;51.224;-2.328;2023-02-23T20:48:41;7.10;;;3.50;;
65073;SDS011;52218;51.224;-2.328;2023-02-23T20:52:23;7.28;;;3.50;;
65073;SDS011;52218;51.224;-2.328;2023-02-23T20:56:08;8.65;;;3.63;;
65073;SDS011;52218;51.224;-2.328;2023-02-23T20:59:50;7.10;;;3.58;;
65073;SDS011;52218;51.224;-2.328;2023-02-23T21:03:32;8.07;;;4.00;;
65073;SDS011;52218;51.224;-2.328;2023-02-23T21:07:15;11.05;;;4.00;;
65073;SDS011;52218;51.224;-2.328;2023-02-23T21:10:59;12.25;;;4.45;;
65073;SDS011;52218;51.224;-2.328;2023-02-23T21:14:48;8.57;;;3.83;;
65073;SDS011;52218;51.224;-2.328;2023-02-23T21:18:30;8.77;;;5.03;;
65073;SDS011;52218;51.224;-2.328;2023-02-23T21:22:12;10.60;;;4.40;;
65073;SDS011;52218;51.224;-2.328;2023-02-23T21:25:59;12.88;;;5.10;;
65073;SDS011;52218;51.224;-2.328;2023-02-23T21:29:50;11.73;;;5.70;;
65073;SDS011;52218;51.224;-2.328;2023-02-23T21:33:36;8.27;;;4.88;;
65073;SDS011;52218;51.224;-2.328;2023-02-23T21:37:18;8.50;;;5.35;;
65073;SDS011;52218;51.224;-2.328;2023-02-23T21:41:01;10.63;;;6.40;;
65073;SDS011;52218;51.224;-2.328;2023-02-23T21:44:43;11.20;;;6.50;;
65073;SDS011;52218;51.224;-2.328;2023-02-23T21:48:26;10.45;;;5.65;;
65073;SDS011;52218;51.224;-2.328;2023-02-23T21:52:09;10.75;;;5.78;;
65073;SDS011;52218;51.224;-2.328;2023-02-23T21:55:54;17.83;;;7.05;;
65073;SDS011;52218;51.224;-2.328;2023-02-23T21:59:36;15.88;;;7.90;;
65073;SDS011;52218;51.224;-2.328;2023-02-23T22:03:18;14.80;;;7.55;;
65073;SDS011;52218;51.224;-2.328;2023-02-23T22:07:00;16.23;;;8.10;;
65073;SDS011;52218;51.224;-2.328;2023-02-23T22:10:42;14.35;;;8.15;;
65073;SDS011;52218;51.224;-2.328;2023-02-23T22:14:26;15.73;;;8.02;;
65073;SDS011;52218;51.224;-2.328;2023-02-23T22:18:08;14.07;;;9.18;;
65073;SDS011;52218;51.224;-2.328;2023-02-23T22:21:54;13.05;;;7.88;;
65073;SDS011;52218;51.224;-2.328;2023-02-23T22:25:36;12.60;;;7.75;;
65073;SDS011;52218;51.224;-2.328;2023-02-23T22:29:19;14.50;;;8.10;;
65073;SDS011;52218;51.224;-2.328;2023-02-23T22:36:47;18.88;;;8.85;;
65073;SDS011;52218;51.224;-2.328;2023-02-23T22:40:30;17.08;;;8.50;;
65073;SDS011;52218;51.224;-2.328;2023-02-23T22:44:13;14.82;;;8.90;;
65073;SDS011;52218;51.224;-2.328;2023-02-23T22:47:57;14.90;;;8.88;;
65073;SDS011;52218;51.224;-2.328;2023-02-23T22:51:51;11.50;;;7.78;;
65073;SDS011;52218;51.224;-2.328;2023-02-23T22:55:33;12.90;;;8.07;;
65073;SDS011;52218;51.224;-2.328;2023-02-23T22:59:15;13.07;;;7.40;;
65073;SDS011;52218;51.224;-2.328;2023-02-23T23:03:00;14.43;;;7.40;;
65073;SDS011;52218;51.224;-2.328;2023-02-23T23:06:44;12.07;;;8.00;;
65073;SDS011;52218;51.224;-2.328;2023-02-23T23:10:26;10.18;;;7.63;;
65073;SDS011;52218;51.224;-2.328;2023-02-23T23:14:09;15.63;;;7.97;;
65073;SDS011;52218;51.224;-2.328;2023-02-23T23:17:52;12.27;;;7.80;;
65073;SDS011;52218;51.224;-2.328;2023-02-23T23:21:34;15.82;;;8.90;;
65073;SDS011;52218;51.224;-2.328;2023-02-23T23:25:16;15.00;;;8.50;;
65073;SDS011;52218;51.224;-2.328;2023-02-23T23:32:46;14.82;;;8.38;;
65073;SDS011;52218;51.224;-2.328;2023-02-23T23:36:30;13.07;;;8.52;;
65073;SDS011;52218;51.224;-2.328;2023-02-23T23:40:17;15.05;;;9.15;;
65073;SDS011;52218;51.224;-2.328;2023-02-23T23:44:05;16.10;;;8.52;;
65073;SDS011;52218;51.224;-2.328;2023-02-23T23:47:47;13.57;;;8.73;;
65073;SDS011;52218;51.224;-2.328;2023-02-23T23:51:30;15.90;;;8.63;;
65073;SDS011;52218;51.224;-2.328;2023-02-23T23:55:17;15.55;;;8.93;;
65073;SDS011;52218;51.224;-2.328;2023-02-23T23:58:59;15.73;;;8.13;;
